createdAt,value
2022-11-07T00:02:05.254Z,84.86
2022-11-07T00:04:35.301Z,84.68
2022-11-07T00:07:03.771Z,84.30
2022-11-07T00:09:31.773Z,84.48
2022-11-07T00:11:59.796Z,84.61
2022-11-07T00:14:27.847Z,84.55
2022-11-07T00:16:55.898Z,84.55
2022-11-07T00:19:23.863Z,84.10
2022-11-07T00:21:53.274Z,84.37
2022-11-07T00:24:21.269Z,84.47
2022-11-07T00:26:49.493Z,84.42
2022-11-07T00:29:19.668Z,84.33
2022-11-07T00:31:48.231Z,84.53
2022-11-07T00:34:16.720Z,84.44
2022-11-07T00:36:45.049Z,84.38
2022-11-07T00:39:14.463Z,84.33
2022-11-07T00:41:42.499Z,84.06
2022-11-07T00:44:10.485Z,84.07
2022-11-07T00:46:38.440Z,84.16
2022-11-07T00:49:06.421Z,83.93
2022-11-07T00:51:34.420Z,83.99
2022-11-07T00:54:03.650Z,83.73
2022-11-07T00:56:33.063Z,83.28
2022-11-07T00:59:01.601Z,83.64
2022-11-07T01:01:32.332Z,83.90
2022-11-07T01:04:18.518Z,84.00
2022-11-07T01:06:48.282Z,83.71
2022-11-07T01:09:19.881Z,83.95
2022-11-07T01:11:49.932Z,83.85
2022-11-07T01:14:20.706Z,83.76
2022-11-07T01:16:48.990Z,83.73
2022-11-07T01:19:17.694Z,83.96
2022-11-07T01:21:46.217Z,83.99
2022-11-07T01:24:14.932Z,83.76
2022-11-07T01:26:44.739Z,83.93
2022-11-07T01:29:14.123Z,83.79
2022-11-07T01:31:42.319Z,83.71
2022-11-07T01:34:10.539Z,83.89
2022-11-07T01:36:38.785Z,83.53
2022-11-07T01:39:07.489Z,83.77
2022-11-07T01:41:39.050Z,83.64
2022-11-07T01:44:40.341Z,83.66
2022-11-07T01:47:12.433Z,83.65
2022-11-07T01:49:43.185Z,83.74
2022-11-07T01:52:16.220Z,83.68
2022-11-07T01:54:49.340Z,83.61
2022-11-07T01:57:21.760Z,84.03
2022-11-07T01:59:52.248Z,83.87
2022-11-07T02:02:22.267Z,83.97
2022-11-07T02:04:50.325Z,83.61
2022-11-07T02:07:21.783Z,83.43
2022-11-07T02:09:51.006Z,83.56
2022-11-07T02:12:20.092Z,83.74
2022-11-07T02:14:48.080Z,83.54
2022-11-07T02:17:17.355Z,83.70
2022-11-07T02:19:49.824Z,83.89
2022-11-07T02:22:26.468Z,84.46
2022-11-07T02:24:59.271Z,84.35
2022-11-07T02:27:30.452Z,84.75
2022-11-07T02:30:02.680Z,84.71
2022-11-07T02:32:30.898Z,84.42
2022-11-07T02:35:00.087Z,84.58
2022-11-07T02:37:32.114Z,84.64
2022-11-07T02:40:04.272Z,84.76
2022-11-07T02:42:44.423Z,84.85
2022-11-07T02:45:15.260Z,84.65
2022-11-07T02:47:43.632Z,84.74
2022-11-07T02:50:14.491Z,84.99
2022-11-07T02:52:42.567Z,85.15
2022-11-07T02:55:13.886Z,84.95
2022-11-07T02:57:42.532Z,84.85
2022-11-07T03:00:13.237Z,84.99
2022-11-07T03:02:46.963Z,84.91
2022-11-07T03:05:16.342Z,84.76
2022-11-07T03:07:45.340Z,84.95
2022-11-07T03:10:15.775Z,84.99
2022-11-07T03:12:44.114Z,85.02
2022-11-07T03:15:13.635Z,85.05
2022-11-07T03:17:41.695Z,85.20
2022-11-07T03:20:11.177Z,85.33
2022-11-07T03:22:39.891Z,84.99
2022-11-07T03:25:08.726Z,85.46
2022-11-07T03:27:38.176Z,85.16
2022-11-07T03:30:07.054Z,85.65
2022-11-07T03:32:34.987Z,85.80
2022-11-07T03:35:03.072Z,85.69
2022-11-07T03:37:31.015Z,85.45
2022-11-07T03:39:59.008Z,85.63
2022-11-07T03:42:26.995Z,85.25
2022-11-07T03:44:56.439Z,85.30
2022-11-07T03:47:24.393Z,85.28
2022-11-07T03:49:52.340Z,85.26
2022-11-07T03:52:20.354Z,85.38
2022-11-07T03:54:48.444Z,85.49
2022-11-07T03:57:16.553Z,85.56
2022-11-07T03:59:44.599Z,85.50
2022-11-07T04:02:14.085Z,85.23
2022-11-07T04:04:42.151Z,85.79
2022-11-07T04:07:10.274Z,85.65
2022-11-07T04:09:38.222Z,85.37
2022-11-07T04:12:24.119Z,85.00
2022-11-07T04:15:10.047Z,85.35
2022-11-07T04:17:39.431Z,85.36
2022-11-07T04:20:08.730Z,85.00
2022-11-07T04:22:36.820Z,85.06
2022-11-07T04:25:05.776Z,85.21
2022-11-07T04:27:44.965Z,85.33
2022-11-07T04:30:23.752Z,85.44
2022-11-07T04:32:54.767Z,85.28
2022-11-07T04:35:24.628Z,84.97
2022-11-07T04:37:53.187Z,84.88
2022-11-07T04:40:21.880Z,84.84
2022-11-07T04:42:50.594Z,84.65
2022-11-07T04:45:19.448Z,84.80
2022-11-07T04:47:47.820Z,84.61
2022-11-07T04:50:20.273Z,84.71
2022-11-07T04:52:49.058Z,84.90
2022-11-07T04:55:22.991Z,84.72
2022-11-07T04:57:51.267Z,84.39
2022-11-07T05:00:20.552Z,84.45
2022-11-07T05:02:49.736Z,84.46
2022-11-07T05:05:19.710Z,84.08
2022-11-07T05:07:48.864Z,84.17
2022-11-07T05:10:20.532Z,83.88
2022-11-07T05:12:48.981Z,84.04
2022-11-07T05:15:17.495Z,84.01
2022-11-07T05:17:45.769Z,84.26
2022-11-07T05:20:29.368Z,84.00
2022-11-07T05:23:17.934Z,83.85
2022-11-07T05:25:48.479Z,83.87
2022-11-07T05:28:25.749Z,83.63
2022-11-07T05:30:59.071Z,83.48
2022-11-07T05:33:27.347Z,83.46
2022-11-07T05:35:56.705Z,83.46
2022-11-07T05:38:24.730Z,83.54
2022-11-07T05:40:52.673Z,82.76
2022-11-07T05:43:20.659Z,83.15
2022-11-07T05:45:48.623Z,82.84
2022-11-07T05:48:16.624Z,83.33
2022-11-07T05:50:44.564Z,83.54
2022-11-07T05:53:14.571Z,83.02
2022-11-07T05:55:43.087Z,83.34
2022-11-07T05:58:12.554Z,82.89
2022-11-07T06:00:41.566Z,83.40
2022-11-07T06:03:09.930Z,84.00
2022-11-07T06:05:39.192Z,84.51
2022-11-07T06:08:07.851Z,85.08
2022-11-07T06:10:37.313Z,86.04
2022-11-07T06:13:07.282Z,86.56
2022-11-07T06:15:37.416Z,88.25
2022-11-07T06:18:07.467Z,88.88
2022-11-07T06:20:35.900Z,90.54
2022-11-07T06:23:05.794Z,90.46
2022-11-07T06:25:34.048Z,89.97
2022-11-07T06:28:05.582Z,90.35
2022-11-07T06:30:34.599Z,88.45
2022-11-07T06:33:03.825Z,88.60
2022-11-07T06:35:32.102Z,86.90
2022-11-07T06:38:02.877Z,86.32
2022-11-07T06:40:30.893Z,86.17
2022-11-07T06:43:07.686Z,85.39
2022-11-07T06:45:36.219Z,84.78
2022-11-07T06:48:04.517Z,84.34
2022-11-07T06:50:32.539Z,83.98
2022-11-07T06:53:03.151Z,83.79
2022-11-07T06:55:31.216Z,83.38
2022-11-07T06:58:00.755Z,83.61
2022-11-07T07:00:30.940Z,83.07
2022-11-07T07:02:59.545Z,83.25
2022-11-07T07:05:27.731Z,82.85
2022-11-07T07:07:56.245Z,82.31
2022-11-07T07:10:25.324Z,82.17
2022-11-07T07:12:53.668Z,81.47
2022-11-07T07:15:21.753Z,81.73
2022-11-07T07:17:51.222Z,81.55
2022-11-07T07:20:19.447Z,81.46
2022-11-07T07:22:53.284Z,81.96
2022-11-07T07:25:25.013Z,81.69
2022-11-07T07:27:53.142Z,80.99
2022-11-07T07:30:21.171Z,81.10
2022-11-07T07:32:50.512Z,80.92
2022-11-07T07:35:18.671Z,81.33
2022-11-07T07:37:50.738Z,81.32
2022-11-07T07:40:19.145Z,82.32
2022-11-07T07:42:47.599Z,81.98
2022-11-07T07:45:17.431Z,81.69
2022-11-07T07:47:45.574Z,81.13
2022-11-07T07:50:15.399Z,80.98
2022-11-07T07:52:43.860Z,80.67
2022-11-07T07:55:12.058Z,80.84
2022-11-07T07:57:41.306Z,80.42
2022-11-07T08:00:11.492Z,80.65
2022-11-07T08:02:43.944Z,80.28
2022-11-07T08:05:13.161Z,80.26
2022-11-07T08:07:50.072Z,80.45
2022-11-07T08:13:07.610Z,79.92
2022-11-07T08:15:35.681Z,79.48
2022-11-07T08:18:04.130Z,79.93
2022-11-07T08:20:32.673Z,78.82
2022-11-07T08:23:14.612Z,78.45
2022-11-07T08:25:44.558Z,77.74
2022-11-07T08:28:12.542Z,77.39
2022-11-07T08:30:40.596Z,76.86
2022-11-07T08:33:09.333Z,77.32
2022-11-07T08:35:42.199Z,76.26
2022-11-07T08:38:12.031Z,76.06
2022-11-07T08:40:40.058Z,76.76
2022-11-07T08:43:08.075Z,76.70
2022-11-07T08:45:36.099Z,76.47
2022-11-07T08:48:04.235Z,75.60
2022-11-07T08:50:32.391Z,76.33
2022-11-07T08:53:03.066Z,76.18
2022-11-07T08:55:32.810Z,75.05
2022-11-07T08:58:01.396Z,74.93
2022-11-07T09:00:29.585Z,74.48
2022-11-07T09:05:50.276Z,74.36
2022-11-07T09:08:18.543Z,75.87
2022-11-07T09:10:47.902Z,74.02
2022-11-07T09:13:16.135Z,73.21
2022-11-07T09:15:50.351Z,72.51
2022-11-07T09:18:19.362Z,74.29
2022-11-07T09:20:47.424Z,75.80
2022-11-07T09:23:15.660Z,75.00
2022-11-07T09:25:44.171Z,76.89
2022-11-07T09:28:13.734Z,76.77
2022-11-07T09:30:41.743Z,76.80
2022-11-07T09:33:09.780Z,75.07
2022-11-07T09:35:37.802Z,76.24
2022-11-07T09:38:06.058Z,75.07
2022-11-07T09:40:44.336Z,76.57
2022-11-07T09:43:39.974Z,77.47
2022-11-07T09:46:19.630Z,75.78
2022-11-07T09:48:52.072Z,73.59
2022-11-07T09:51:27.948Z,76.58
2022-11-07T09:54:01.498Z,75.28
2022-11-07T09:56:32.800Z,74.88
2022-11-07T09:59:11.267Z,75.12
2022-11-07T10:01:42.761Z,76.80
2022-11-07T10:04:25.705Z,76.97
2022-11-07T10:07:01.172Z,75.83
2022-11-07T10:09:38.136Z,75.97
2022-11-07T10:12:19.189Z,73.07
2022-11-07T10:14:59.006Z,71.55
2022-11-07T10:17:34.001Z,71.15
2022-11-07T10:20:14.796Z,72.04
2022-11-07T10:23:02.732Z,73.33
2022-11-07T10:25:36.610Z,73.30
2022-11-07T10:28:16.132Z,72.41
2022-11-07T10:30:49.256Z,71.90
2022-11-07T10:33:38.273Z,71.54
2022-11-07T10:36:14.460Z,71.38
2022-11-07T10:38:43.549Z,69.98
2022-11-07T10:41:17.404Z,70.85
2022-11-07T10:43:49.804Z,70.38
2022-11-07T10:46:21.911Z,70.23
2022-11-07T10:48:55.158Z,68.84
2022-11-07T10:51:34.483Z,70.43
2022-11-07T10:54:02.554Z,69.59
2022-11-07T10:56:30.559Z,70.19
2022-11-07T10:58:59.462Z,70.27
2022-11-07T11:01:29.133Z,70.91
2022-11-07T11:03:57.198Z,69.40
2022-11-07T11:06:31.465Z,69.75
2022-11-07T11:09:00.665Z,69.39
2022-11-07T11:11:32.043Z,67.64
2022-11-07T11:14:08.262Z,68.97
2022-11-07T11:16:40.096Z,68.73
2022-11-07T11:19:19.489Z,69.31
2022-11-07T11:21:49.056Z,68.98
2022-11-07T11:24:26.441Z,68.89
2022-11-07T11:26:56.310Z,68.38
2022-11-07T11:29:39.130Z,68.07
2022-11-07T11:32:17.702Z,66.82
2022-11-07T11:34:54.859Z,66.32
2022-11-07T11:37:24.552Z,66.46
2022-11-07T11:40:07.839Z,68.35
2022-11-07T11:42:47.164Z,66.80
2022-11-07T11:45:18.643Z,67.48
2022-11-07T11:47:56.523Z,67.72
2022-11-07T11:50:31.380Z,67.72
2022-11-07T11:53:01.239Z,67.12
2022-11-07T11:55:40.035Z,66.35
2022-11-07T11:58:20.375Z,66.23
2022-11-07T12:00:55.027Z,66.70
2022-11-07T12:03:40.699Z,66.87
2022-11-07T12:06:16.034Z,67.02
2022-11-07T12:09:15.343Z,65.52
2022-11-07T12:11:58.871Z,64.74
2022-11-07T12:14:54.414Z,65.27
2022-11-07T12:17:33.048Z,64.34
2022-11-07T12:20:14.082Z,63.75
2022-11-07T12:22:51.820Z,64.21
2022-11-07T12:25:28.049Z,64.93
2022-11-07T12:28:05.290Z,66.30
2022-11-07T12:30:43.202Z,65.75
2022-11-07T12:33:24.350Z,67.39
2022-11-07T12:35:58.178Z,67.42
2022-11-07T12:38:59.959Z,66.61
2022-11-07T12:41:38.577Z,68.00
2022-11-07T12:44:19.805Z,67.71
2022-11-07T12:46:52.786Z,65.54
2022-11-07T12:49:48.933Z,64.38
2022-11-07T12:52:32.256Z,65.68
2022-11-07T12:55:03.958Z,65.10
2022-11-07T12:57:34.390Z,65.49
2022-11-07T13:00:06.600Z,65.60
2022-11-07T13:02:51.797Z,65.61
2022-11-07T13:05:36.941Z,66.30
2022-11-07T13:08:12.330Z,66.98
2022-11-07T13:10:48.605Z,66.99
2022-11-07T13:13:23.494Z,66.00
2022-11-07T13:16:14.629Z,65.73
2022-11-07T13:21:12.365Z,65.84
2022-11-07T13:23:42.202Z,65.84
2022-11-07T13:26:32.965Z,64.83
2022-11-07T13:29:00.140Z,66.41
2022-11-07T13:31:34.589Z,66.72
2022-11-07T13:34:24.375Z,66.81
2022-11-07T13:36:59.429Z,65.90
2022-11-07T13:39:30.404Z,66.43
2022-11-07T13:42:00.639Z,65.23
2022-11-07T13:44:32.952Z,63.78
2022-11-07T13:47:05.639Z,66.45
2022-11-07T13:49:44.226Z,67.31
2022-11-07T13:52:18.639Z,65.40
2022-11-07T13:54:54.419Z,65.69
2022-11-07T13:57:28.882Z,66.78
2022-11-07T14:00:01.378Z,66.77
2022-11-07T14:02:31.190Z,66.09
2022-11-07T14:05:20.012Z,65.43
2022-11-07T14:07:49.670Z,64.30
2022-11-07T14:10:25.174Z,65.31
2022-11-07T14:12:57.608Z,65.71
2022-11-07T14:15:25.884Z,66.64
2022-11-07T14:17:53.948Z,65.79
2022-11-07T14:20:22.320Z,67.15
2022-11-07T14:22:52.448Z,68.98
2022-11-07T14:25:26.819Z,68.28
2022-11-07T14:27:55.153Z,67.75
2022-11-07T14:30:25.670Z,69.25
2022-11-07T14:32:55.896Z,68.80
2022-11-07T14:35:27.478Z,69.57
2022-11-07T14:37:56.820Z,70.73
2022-11-07T14:40:27.024Z,70.62
2022-11-07T14:42:55.303Z,71.86
2022-11-07T14:45:55.079Z,70.75
2022-11-07T14:48:14.785Z,72.35
2022-11-07T14:50:43.471Z,71.60
2022-11-07T14:53:20.104Z,71.52
2022-11-07T14:55:53.896Z,70.88
2022-11-07T14:58:24.953Z,71.57
2022-11-07T15:00:55.987Z,71.45
2022-11-07T15:03:32.100Z,71.54
2022-11-07T15:06:00.375Z,71.51
2022-11-07T15:08:30.208Z,72.77
2022-11-07T15:11:06.425Z,72.73
2022-11-07T15:13:36.162Z,72.09
2022-11-07T15:16:07.052Z,72.76
2022-11-07T15:18:40.322Z,72.03
2022-11-07T15:21:11.732Z,72.26
2022-11-07T15:23:39.748Z,71.67
2022-11-07T15:26:13.889Z,72.36
2022-11-07T15:28:47.297Z,70.46
2022-11-07T15:31:23.955Z,71.34
2022-11-07T15:33:53.108Z,70.13
2022-11-07T15:36:21.626Z,70.23
2022-11-07T15:38:50.905Z,70.51
2022-11-07T15:41:20.425Z,71.18
2022-11-07T15:43:48.400Z,71.03
2022-11-07T15:46:26.634Z,70.86
2022-11-07T15:48:54.829Z,71.16
2022-11-07T15:51:22.830Z,72.25
2022-11-07T15:53:50.955Z,72.23
2022-11-07T15:56:23.081Z,71.86
2022-11-07T15:58:51.428Z,71.86
2022-11-07T16:01:19.848Z,71.10
2022-11-07T16:03:47.862Z,71.98
2022-11-07T16:06:20.804Z,73.11
2022-11-07T16:08:48.838Z,71.43
2022-11-07T16:11:16.935Z,72.02
2022-11-07T16:13:47.117Z,73.37
2022-11-07T16:16:20.409Z,71.93
2022-11-07T16:18:50.703Z,71.92
2022-11-07T16:21:18.810Z,70.32
2022-11-07T16:23:49.597Z,70.38
2022-11-07T16:26:21.526Z,70.10
2022-11-07T16:28:51.034Z,71.47
2022-11-07T16:31:19.427Z,71.26
2022-11-07T16:33:47.439Z,72.02
2022-11-07T16:36:21.900Z,71.90
2022-11-07T16:38:50.143Z,70.70
2022-11-07T16:41:18.163Z,70.05
2022-11-07T16:43:47.061Z,71.86
2022-11-07T16:46:18.489Z,72.35
2022-11-07T16:48:48.415Z,72.18
2022-11-07T16:51:18.031Z,71.76
2022-11-07T16:53:46.773Z,72.09
2022-11-07T16:56:23.542Z,71.78
2022-11-07T16:58:52.955Z,73.00
2022-11-07T17:01:23.403Z,72.98
2022-11-07T17:03:51.688Z,74.52
2022-11-07T17:06:21.874Z,73.75
2022-11-07T17:08:49.889Z,72.12
2022-11-07T17:11:19.216Z,71.52
2022-11-07T17:13:47.271Z,72.02
2022-11-07T17:16:17.885Z,73.62
2022-11-07T17:18:47.483Z,72.33
2022-11-07T17:21:23.699Z,72.99
2022-11-07T17:23:52.532Z,73.62
2022-11-07T17:26:22.970Z,75.42
2022-11-07T17:28:51.942Z,74.84
2022-11-07T17:31:20.319Z,73.89
2022-11-07T17:33:49.961Z,73.53
2022-11-07T17:36:29.764Z,73.83
2022-11-07T17:39:03.676Z,75.27
2022-11-07T17:41:31.871Z,77.28
2022-11-07T17:44:00.966Z,75.70
2022-11-07T17:46:31.753Z,77.03
2022-11-07T17:49:03.373Z,77.96
2022-11-07T17:51:31.484Z,77.74
2022-11-07T17:54:00.105Z,77.51
2022-11-07T17:56:29.783Z,77.61
2022-11-07T17:59:00.098Z,76.77
2022-11-07T18:01:31.043Z,77.11
2022-11-07T18:04:01.920Z,75.80
2022-11-07T18:06:30.796Z,77.18
2022-11-07T18:09:00.190Z,76.00
2022-11-07T18:11:30.554Z,76.39
2022-11-07T18:13:59.915Z,75.52
2022-11-07T18:16:31.227Z,75.89
2022-11-07T18:19:02.148Z,75.10
2022-11-07T18:21:30.573Z,76.22
2022-11-07T18:23:58.889Z,75.79
2022-11-07T18:26:30.851Z,75.38
2022-11-07T18:29:08.908Z,75.63
2022-11-07T18:31:40.577Z,77.40
2022-11-07T18:34:12.980Z,76.81
2022-11-07T18:36:42.989Z,77.43
2022-11-07T18:39:15.046Z,75.16
2022-11-07T18:41:43.576Z,77.33
2022-11-07T18:44:12.479Z,75.82
2022-11-07T18:46:41.073Z,75.92
2022-11-07T18:49:12.322Z,75.32
2022-11-07T18:51:40.762Z,74.42
2022-11-07T18:54:08.769Z,74.98
2022-11-07T18:56:36.823Z,74.80
2022-11-07T18:59:04.873Z,76.33
2022-11-07T19:01:34.138Z,77.20
2022-11-07T19:04:05.762Z,76.44
2022-11-07T19:06:35.344Z,76.98
2022-11-07T19:09:03.611Z,76.98
2022-11-07T19:11:34.059Z,78.08
2022-11-07T19:14:03.816Z,78.81
2022-11-07T19:16:32.403Z,79.43
2022-11-07T19:19:01.085Z,78.77
2022-11-07T19:21:29.118Z,77.46
2022-11-07T19:23:58.536Z,77.79
2022-11-07T19:26:26.536Z,79.00
2022-11-07T19:28:55.284Z,79.34
2022-11-07T19:31:23.346Z,80.11
2022-11-07T19:33:51.394Z,79.46
2022-11-07T19:36:21.441Z,78.99
2022-11-07T19:38:50.497Z,78.63
2022-11-07T19:41:20.407Z,77.50
2022-11-07T19:43:50.121Z,78.19
2022-11-07T19:46:20.770Z,77.59
2022-11-07T19:48:49.772Z,78.41
2022-11-07T19:51:22.576Z,78.56
2022-11-07T19:53:55.055Z,77.85
2022-11-07T19:56:26.381Z,77.23
2022-11-07T19:58:55.444Z,76.70
2022-11-07T20:01:25.804Z,77.12
2022-11-07T20:03:55.803Z,76.69
2022-11-07T20:06:25.645Z,76.81
2022-11-07T20:08:54.325Z,76.30
2022-11-07T20:11:26.697Z,77.21
2022-11-07T20:14:02.697Z,77.63
2022-11-07T20:16:32.214Z,78.34
2022-11-07T20:19:01.362Z,78.18
2022-11-07T20:21:30.402Z,78.65
2022-11-07T20:23:59.933Z,78.41
2022-11-07T20:26:31.579Z,78.41
2022-11-07T20:29:00.365Z,78.11
2022-11-07T20:31:30.635Z,77.63
2022-11-07T20:33:59.834Z,77.98
2022-11-07T20:36:28.418Z,78.36
2022-11-07T20:38:57.041Z,79.41
2022-11-07T20:41:27.202Z,77.52
2022-11-07T20:43:56.862Z,77.88
2022-11-07T20:46:25.182Z,78.69
2022-11-07T20:48:54.185Z,77.92
2022-11-07T20:51:25.239Z,78.78
2022-11-07T20:53:53.949Z,78.93
2022-11-07T20:56:23.621Z,79.81
2022-11-07T20:58:51.959Z,79.74
2022-11-07T21:01:23.620Z,78.34
2022-11-07T21:03:52.126Z,78.72
2022-11-07T21:06:20.835Z,78.53
2022-11-07T21:08:50.388Z,79.42
2022-11-07T21:11:19.012Z,79.59
2022-11-07T21:13:52.656Z,79.16
2022-11-07T21:16:23.481Z,79.21
2022-11-07T21:18:52.279Z,78.08
2022-11-07T21:21:22.250Z,77.90
2022-11-07T21:23:52.499Z,77.80
2022-11-07T21:26:26.559Z,76.19
2022-11-07T21:28:55.880Z,75.24
2022-11-07T21:31:28.585Z,75.47
2022-11-07T21:33:57.742Z,75.86
2022-11-07T21:36:27.889Z,75.69
2022-11-07T21:38:56.610Z,75.57
2022-11-07T21:41:25.145Z,75.48
2022-11-07T21:43:53.190Z,75.41
2022-11-07T21:46:23.642Z,75.03
2022-11-07T21:48:53.554Z,75.05
2022-11-07T21:51:23.286Z,75.05
2022-11-07T21:53:51.683Z,76.75
2022-11-07T21:56:23.182Z,76.51
2022-11-07T21:58:51.970Z,76.27
2022-11-07T22:01:21.053Z,76.72
2022-11-07T22:04:08.015Z,76.85
2022-11-07T22:06:39.736Z,76.17
2022-11-07T22:09:09.584Z,76.12
2022-11-07T22:11:37.558Z,76.78
2022-11-07T22:14:06.432Z,77.83
2022-11-07T22:16:34.699Z,78.09
2022-11-07T22:19:02.714Z,79.13
2022-11-07T22:21:31.400Z,79.12
2022-11-07T22:24:00.725Z,77.70
2022-11-07T22:26:29.951Z,77.11
2022-11-07T22:28:58.077Z,76.95
2022-11-07T22:31:28.572Z,76.72
2022-11-07T22:33:57.400Z,75.38
2022-11-07T22:36:26.002Z,75.37
2022-11-07T22:38:53.957Z,74.77
2022-11-07T22:41:25.707Z,74.86
2022-11-07T22:43:54.159Z,74.46
2022-11-07T22:46:24.065Z,73.97
2022-11-07T22:48:52.948Z,73.87
2022-11-07T22:51:23.487Z,73.79
2022-11-07T22:53:57.134Z,73.65
2022-11-07T22:56:27.753Z,74.42
2022-11-07T22:58:56.279Z,74.28
2022-11-07T23:01:26.427Z,74.83
2022-11-07T23:03:55.536Z,75.82
2022-11-07T23:06:24.936Z,75.16
2022-11-07T23:08:53.425Z,75.32
2022-11-07T23:14:15.624Z,74.12
2022-11-07T23:16:46.171Z,74.47
2022-11-07T23:19:16.272Z,73.89
2022-11-07T23:21:44.704Z,73.83
2022-11-07T23:24:12.716Z,74.01
2022-11-07T23:26:41.030Z,73.81
2022-11-07T23:29:13.462Z,74.39
2022-11-07T23:31:43.093Z,75.33
2022-11-07T23:34:11.605Z,74.62
2022-11-07T23:36:43.955Z,74.72
2022-11-07T23:39:15.711Z,75.28
2022-11-07T23:41:44.118Z,74.29
2022-11-07T23:44:14.396Z,74.10
2022-11-07T23:47:00.559Z,74.30
2022-11-07T23:49:45.325Z,73.55
2022-11-07T23:52:13.578Z,74.28
2022-11-07T23:54:59.480Z,73.65
2022-11-07T23:57:27.611Z,73.35
